Landis, Arkansas
Current Conditions -  °F | °C
As of 9:15 PM on Saturday 20 Dec 2014 (Local Time) from KFLP Reporting Station
Broken Clouds Broken Clouds  
Wind Chill:   Ceiling: 2500
Heat Index:   Visibility: 7mi
Dew Point:   Wind: 0mph
Humidity: 87%   Direction: NA
Pressure: 30.22"   Gusts: NA
Location:  35.9407°N, 92.655°W
Report Text: KFLP 210315Z 00000KT 7SM BKN025 04/02 A3022 RMK AO1
Loading
Personal Weather Stations






























Interactive Weather Map New forecast layout! Learn more

10-Day Weather Forecast

Advertisements
Track Severe Weather on mobile